Time;durP1;ratioP1;P1;durP2;ratioP2;P2;SDS_P1;SDS_P2;PMS_P1;PMS_P2;Temp;Humidity;BMP_temperature;BMP_pressure;BME280_temperature;BME280_humidity;BME280_pressure;Samples;Min_cycle;Max_cycle;Signal;HPM_P1;HPM_P2
2024/02/17 00:03:12;;;;;;;17.67;9.20;;;;;;;10.83;100.00;100783.81;5138721;55;1142618;-84
2024/02/17 00:08:16;;;;;;;17.70;7.83;;;;;;;10.74;100.00;100788.45;5133009;55;1143085;-81
2024/02/17 00:13:23;;;;;;;21.33;10.47;;;;;;;10.64;100.00;100767.13;5217604;55;1142745;-81
2024/02/17 00:18:28;;;;;;;15.83;8.17;;;;;;;10.61;100.00;100783.70;5173374;55;1145050;-84
2024/02/17 00:23:34;;;;;;;27.40;12.55;;;;;;;10.56;100.00;100787.99;5195033;55;1142783;-85
2024/02/17 00:28:39;;;;;;;17.64;10.52;;;;;;;10.50;100.00;100789.78;5197731;55;1145009;-81
2024/02/17 00:33:45;;;;;;;12.05;9.03;;;;;;;10.45;100.00;100801.16;5217882;55;1144850;-80
2024/02/17 00:38:51;;;;;;;15.47;9.37;;;;;;;10.39;100.00;100800.30;5197339;55;1142798;-82
2024/02/17 00:43:56;;;;;;;18.70;10.43;;;;;;;10.37;100.00;100785.02;5074985;55;1143193;-79
2024/02/17 00:49:02;;;;;;;21.80;12.37;;;;;;;10.35;100.00;100808.08;5087327;56;1145235;-85
2024/02/17 00:54:08;;;;;;;14.23;9.57;;;;;;;10.31;100.00;100824.63;5127936;55;1144698;-89
2024/02/17 00:59:14;;;;;;;16.17;8.97;;;;;;;10.29;100.00;100822.58;5133386;55;1143047;-81
2024/02/17 01:04:20;;;;;;;18.93;10.63;;;;;;;10.27;100.00;100811.26;5129685;56;1142738;-88
2024/02/17 01:09:25;;;;;;;15.13;9.37;;;;;;;10.21;100.00;100809.08;5134064;56;1144627;-82
2024/02/17 01:14:31;;;;;;;18.80;10.27;;;;;;;10.18;100.00;100823.34;5154717;55;1143141;-84
2024/02/17 01:19:37;;;;;;;17.05;10.00;;;;;;;10.16;100.00;100830.50;5210510;55;1144979;-87
2024/02/17 01:24:43;;;;;;;17.45;9.70;;;;;;;10.15;100.00;100835.42;5230931;55;1144986;-80
2024/02/17 01:29:49;;;;;;;15.90;10.77;;;;;;;10.15;100.00;100845.15;5210132;55;1142827;-79
2024/02/17 01:34:54;;;;;;;14.63;10.13;;;;;;;10.09;100.00;100850.37;5209323;55;1145149;-79
2024/02/17 01:40:00;;;;;;;12.10;9.27;;;;;;;10.08;100.00;100822.77;5230500;55;1144994;-79
2024/02/17 01:45:07;;;;;;;15.73;9.80;;;;;;;10.10;100.00;100848.10;5057775;55;1142872;-82
2024/02/17 01:50:13;;;;;;;18.47;10.73;;;;;;;10.12;100.00;100837.42;5048663;54;1142758;-83
2024/02/17 01:55:19;;;;;;;15.00;10.03;;;;;;;10.13;100.00;100832.03;5067694;55;1144782;-80
2024/02/17 02:00:24;;;;;;;17.40;9.90;;;;;;;10.15;100.00;100840.70;5175494;55;1145215;-83
2024/02/17 02:05:30;;;;;;;13.90;10.57;;;;;;;10.17;100.00;100844.09;5128812;56;1142710;-81
2024/02/17 02:10:36;;;;;;;14.50;10.20;;;;;;;10.16;100.00;100873.27;5130382;56;1144887;-79
2024/02/17 02:15:44;;;;;;;14.68;9.28;;;;;;;10.17;100.00;100870.52;5151627;56;1145048;-79
2024/02/17 02:20:49;;;;;;;14.23;10.57;;;;;;;10.16;100.00;100862.70;5130411;56;1142862;-81
2024/02/17 02:25:57;;;;;;;15.17;10.20;;;;;;;10.14;100.00;100874.70;5130623;56;1144837;-82
2024/02/17 02:31:03;;;;;;;18.43;10.77;;;;;;;10.14;100.00;100864.59;5151639;56;1145059;-80
2024/02/17 02:36:09;;;;;;;14.03;10.47;;;;;;;10.18;100.00;100867.41;5131459;56;1145109;-81
2024/02/17 02:41:15;;;;;;;13.47;9.53;;;;;;;10.20;100.00;100853.64;5128842;55;1144788;-83
2024/02/17 02:46:20;;;;;;;12.70;9.07;;;;;;;10.21;100.00;100849.57;5143118;55;1142951;-77
2024/02/17 02:51:26;;;;;;;14.47;9.00;;;;;;;10.24;100.00;100857.73;5122946;55;1142994;-83
2024/02/17 02:56:31;;;;;;;12.77;9.23;;;;;;;10.25;100.00;100858.10;5185510;55;1143274;-78
2024/02/17 03:01:37;;;;;;;17.67;9.73;;;;;;;10.27;100.00;100853.55;5156699;55;1143021;-80
2024/02/17 03:06:43;;;;;;;15.43;9.48;;;;;;;10.31;100.00;100862.97;5141658;56;1142623;-83
2024/02/17 03:11:48;;;;;;;15.80;9.97;;;;;;;10.34;100.00;100869.36;5122519;56;1143175;-79
2024/02/17 03:16:54;;;;;;;14.20;9.87;;;;;;;10.33;100.00;100869.00;5122866;56;1142793;-78
2024/02/17 03:22:00;;;;;;;15.30;9.27;;;;;;;10.33;100.00;100878.25;5142941;56;1142722;-79
2024/02/17 03:27:05;;;;;;;14.03;9.87;;;;;;;10.31;100.00;100887.23;5122738;56;1142815;-83
2024/02/17 03:32:11;;;;;;;14.27;10.63;;;;;;;10.29;100.00;100879.89;5122379;56;1143011;-80
2024/02/17 03:37:18;;;;;;;13.77;10.10;;;;;;;10.27;100.00;100874.70;5170843;55;1144750;-84
2024/02/17 03:42:24;;;;;;;12.23;9.80;;;;;;;10.28;100.00;100876.88;5108291;55;1145142;-76
2024/02/17 03:47:31;;;;;;;17.02;11.22;;;;;;;10.26;100.00;100900.77;5119382;56;1142786;-78
2024/02/17 03:52:36;;;;;;;17.07;10.57;;;;;;;10.23;100.00;100911.08;5026892;56;1144904;-77
2024/02/17 03:57:42;;;;;;;13.80;10.35;;;;;;;10.23;100.00;100914.23;5091928;56;1145011;-84
2024/02/17 04:02:47;;;;;;;11.70;9.68;;;;;;;10.21;100.00;100916.97;5092729;55;1145098;-82
2024/02/17 04:07:53;;;;;;;13.38;9.73;;;;;;;10.23;100.00;100925.62;5116505;55;1142876;-79
2024/02/17 04:12:59;;;;;;;14.40;10.77;;;;;;;10.23;100.00;100932.22;5232578;55;1143064;-82
2024/02/17 04:18:06;;;;;;;15.67;10.27;;;;;;;10.26;100.00;100943.06;5219890;55;1144733;-79
2024/02/17 04:23:12;;;;;;;10.27;8.60;;;;;;;10.28;100.00;100937.67;5200535;55;1144612;-78
2024/02/17 04:28:17;;;;;;;12.83;9.30;;;;;;;10.33;100.00;100944.34;5231627;55;1142579;-82
2024/02/17 04:33:23;;;;;;;10.97;9.03;;;;;;;10.35;100.00;100954.81;5200114;55;1143048;-77
2024/02/17 04:38:29;;;;;;;12.57;9.43;;;;;;;10.37;100.00;100958.20;5211649;55;1142845;-78
2024/02/17 04:43:34;;;;;;;11.90;9.63;;;;;;;10.40;100.00;100959.29;5180195;55;1142619;-81
2024/02/17 04:48:40;;;;;;;12.13;8.80;;;;;;;10.40;100.00;100954.00;5213191;55;1143142;-77
2024/02/17 04:53:45;;;;;;;11.90;9.50;;;;;;;10.40;100.00;100955.32;5220134;55;1143118;-80
2024/02/17 04:58:51;;;;;;;11.93;8.70;;;;;;;10.38;100.00;100959.42;5238207;55;1142755;-80
2024/02/17 05:03:56;;;;;;;12.43;8.47;;;;;;;10.36;100.00;100967.09;5104764;55;1143106;-79
2024/02/17 05:09:02;;;;;;;9.60;7.40;;;;;;;10.33;100.00;100980.52;5100988;56;1142798;-82
2024/02/17 05:14:09;;;;;;;10.60;6.75;;;;;;;10.28;100.00;100988.75;5121665;56;1140742;-83
2024/02/17 05:19:15;;;;;;;6.53;5.70;;;;;;;10.24;100.00;100989.91;5101001;56;1142813;-80
2024/02/17 05:24:21;;;;;;;7.17;5.93;;;;;;;10.22;100.00;101003.73;5101893;56;1140768;-85
2024/02/17 05:29:27;;;;;;;5.53;4.93;;;;;;;10.20;100.00;101008.27;5128227;56;1140845;-79
2024/02/17 05:34:33;;;;;;;5.73;4.37;;;;;;;10.20;100.00;101020.17;5188402;55;1150337;-76
2024/02/17 05:39:39;;;;;;;6.00;3.50;;;;;;;10.18;100.00;101021.59;5189514;55;1141037;-79
2024/02/17 05:44:44;;;;;;;5.70;3.57;;;;;;;10.15;100.00;101018.27;5142647;55;1150333;-76
2024/02/17 05:49:50;;;;;;;3.25;3.05;;;;;;;10.13;100.00;101025.45;5152869;56;1141164;-79
2024/02/17 05:54:55;;;;;;;5.43;2.90;;;;;;;10.09;100.00;101039.34;5143811;55;1140926;-83
2024/02/17 06:00:01;;;;;;;13.47;7.20;;;;;;;10.07;100.00;101047.02;5127853;56;1140779;-80
2024/02/17 06:05:07;;;;;;;4.77;1.97;;;;;;;10.06;100.00;101059.39;5091213;56;1142907;-78
2024/02/17 06:10:13;;;;;;;2.37;2.17;;;;;;;10.05;100.00;101072.70;5117580;56;1140830;-84
2024/02/17 06:15:19;;;;;;;2.53;1.77;;;;;;;9.99;100.00;101077.91;5122356;56;1140719;-83
2024/02/17 06:25:48;;;;;;;1.60;1.50;;;;;;;9.92;100.00;101085.89;5049703;55;1139031;-82
2024/02/17 06:30:53;;;;;;;9.37;1.60;;;;;;;9.90;100.00;101090.89;5049530;55;1139027;-83
2024/02/17 06:35:59;;;;;;;1.57;1.50;;;;;;;9.87;100.00;101106.00;5068032;55;1138536;-80
2024/02/17 06:41:05;;;;;;;1.77;1.67;;;;;;;9.85;100.00;101113.17;5059373;55;1138806;-78
2024/02/17 06:46:13;;;;;;;1.97;1.87;;;;;;;9.85;100.00;101107.89;5126078;55;1138947;-78
2024/02/17 06:51:19;;;;;;;1.60;1.50;;;;;;;9.85;100.00;101115.81;5130833;55;1138529;-82
2024/02/17 06:56:28;;;;;;;2.00;1.50;;;;;;;9.86;100.00;101118.83;5123539;55;1138844;-81
2024/02/17 07:01:32;;;;;;;1.97;1.87;;;;;;;9.88;100.00;101122.70;5179885;55;1138565;-83
2024/02/17 07:06:37;;;;;;;2.77;2.40;;;;;;;9.88;100.00;101122.70;5196646;55;1215917;-78
2024/02/17 07:11:43;;;;;;;3.02;2.10;;;;;;;9.90;100.00;101130.05;5218238;55;1138548;-80
2024/02/17 07:16:48;;;;;;;2.30;2.10;;;;;;;9.94;100.00;101139.45;5196275;55;1225270;-81
2024/02/17 07:21:54;;;;;;;2.10;1.90;;;;;;;9.94;100.00;101139.45;5215021;55;1138818;-79
2024/02/17 07:26:59;;;;;;;2.87;2.67;;;;;;;9.96;100.00;101136.23;5236497;55;1138900;-81
2024/02/17 07:32:06;;;;;;;5.07;2.73;;;;;;;9.96;100.00;101147.28;5140049;55;1212789;-80
2024/02/17 07:37:12;;;;;;;7.07;3.33;;;;;;;9.95;100.00;101159.64;5181565;55;1138943;-78
2024/02/17 07:42:18;;;;;;;2.90;2.70;;;;;;;9.95;100.00;101172.01;5206407;55;1138693;-79
2024/02/17 07:47:23;;;;;;;11.10;4.07;;;;;;;9.93;100.00;101186.64;5209696;55;1138902;-80
2024/02/17 07:52:29;;;;;;;4.03;3.73;;;;;;;9.88;100.00;101196.67;5211185;55;1140980;-84
2024/02/17 07:57:35;;;;;;;6.53;4.42;;;;;;;9.87;100.00;101201.11;5222103;55;1139045;-81
2024/02/17 08:02:42;;;;;;;5.17;4.70;;;;;;;9.84;100.00;101202.62;5202270;55;1138893;-88
2024/02/17 08:07:48;;;;;;;4.23;3.77;;;;;;;9.86;100.00;101203.84;5218229;55;1236191;-81
2024/02/17 08:12:53;;;;;;;6.07;4.37;;;;;;;9.89;100.00;101208.94;5241192;55;1138819;-78
2024/02/17 08:17:59;;;;;;;5.77;4.30;;;;;;;9.93;100.00;101212.24;5218192;55;1138801;-78
2024/02/17 08:23:05;;;;;;;5.23;4.20;;;;;;;9.96;100.00;101211.55;5220016;55;1139366;-80
2024/02/17 08:28:10;;;;;;;6.10;4.00;;;;;;;9.98;100.00;101210.13;5194905;55;1138494;-79
2024/02/17 08:33:16;;;;;;;4.67;4.23;;;;;;;9.99;100.00;101211.36;5127098;56;1226177;-77
2024/02/17 08:38:22;;;;;;;5.27;4.47;;;;;;;10.02;100.00;101216.45;5172281;55;1138781;-77
2024/02/17 08:43:28;;;;;;;4.40;4.00;;;;;;;10.03;100.00;101223.44;5174918;55;1141583;-77
2024/02/17 08:48:33;;;;;;;5.00;4.50;;;;;;;10.03;100.00;101224.76;5042171;57;1236419;-79
2024/02/17 08:53:39;;;;;;;7.10;4.00;;;;;;;10.04;100.00;101223.81;5039761;57;1254064;-77
2024/02/17 08:58:44;;;;;;;3.67;3.47;;;;;;;10.11;100.00;101226.42;5088201;56;1253074;-77
2024/02/17 09:03:50;;;;;;;8.50;4.00;;;;;;;10.20;100.00;101235.61;5206838;55;1248236;-78
2024/02/17 09:08:55;;;;;;;3.67;3.08;;;;;;;10.23;100.00;101240.20;5132036;56;1177174;-77
2024/02/17 09:14:03;;;;;;;3.10;2.90;;;;;;;10.25;100.00;101242.74;5135996;55;1236237;-77
2024/02/17 09:19:08;;;;;;;3.97;3.57;;;;;;;10.26;100.00;101245.77;5084973;56;1141819;-76
2024/02/17 09:24:18;;;;;;;4.90;3.37;;;;;;;10.28;100.00;101254.45;5114430;56;1141946;-78
2024/02/17 09:29:21;;;;;;;4.47;2.70;;;;;;;10.28;100.00;101258.89;5080815;56;1249213;-78
2024/02/17 09:34:29;;;;;;;3.27;2.90;;;;;;;10.24;100.00;101258.23;5120777;56;1140866;-79
2024/02/17 09:39:35;;;;;;;3.70;2.70;;;;;;;10.26;100.00;101267.39;5010789;56;1140921;-78
2024/02/17 09:44:41;;;;;;;4.93;2.97;;;;;;;10.29;100.00;101280.41;5146468;55;1140955;-78
2024/02/17 09:49:46;;;;;;;3.00;2.80;;;;;;;10.27;100.00;101288.91;5104212;56;1140804;-78
2024/02/17 09:54:52;;;;;;;2.77;2.58;;;;;;;10.27;100.00;101288.44;5103368;55;1140960;-77
2024/02/17 09:59:58;;;;;;;5.43;2.70;;;;;;;10.28;100.00;101299.87;5125844;55;1159567;-78
2024/02/17 10:05:04;;;;;;;2.60;2.40;;;;;;;10.25;100.00;101304.87;5144079;55;1141148;-80
2024/02/17 10:10:10;;;;;;;2.92;2.70;;;;;;;10.25;100.00;101309.31;5209899;55;1141004;-77
2024/02/17 10:15:16;;;;;;;2.20;2.10;;;;;;;10.27;100.00;101323.28;5021492;55;1140412;-78
2024/02/17 10:20:22;;;;;;;2.83;2.30;;;;;;;10.25;100.00;101327.81;5015550;56;1140948;-78
2024/02/17 10:25:28;;;;;;;3.27;2.60;;;;;;;10.23;100.00;101331.41;5125622;55;1140692;-77
2024/02/17 10:30:35;;;;;;;3.27;2.10;;;;;;;10.23;100.00;101331.41;5192243;55;1140472;-75
2024/02/17 10:35:42;;;;;;;4.93;2.43;;;;;;;10.28;100.00;101336.88;5210118;55;1140785;-76
2024/02/17 10:40:48;;;;;;;2.62;1.90;;;;;;;10.24;100.00;101338.86;5201667;55;1140984;-76
2024/02/17 10:45:56;;;;;;;4.60;1.73;;;;;;;10.18;100.00;101355.09;5146253;55;1140868;-78
2024/02/17 10:51:02;;;;;;;2.40;1.97;;;;;;;10.08;100.00;101351.34;5145891;55;1140834;-78
2024/02/17 10:56:14;;;;;;;1.47;1.40;;;;;;;10.03;100.00;101353.41;5187748;55;1140742;-78
2024/02/17 11:01:19;;;;;;;1.10;1.10;;;;;;;9.98;100.00;101355.47;5185639;55;1140961;-77
2024/02/17 11:06:25;;;;;;;0.90;0.80;;;;;;;9.92;100.00;101358.52;5210802;55;1138797;-77
2024/02/17 11:11:32;;;;;;;5.03;1.20;;;;;;;9.90;100.00;101372.29;5176344;55;1138828;-77
2024/02/17 11:16:39;;;;;;;2.10;1.12;;;;;;;9.85;100.00;101373.41;5185969;55;1139200;-78
2024/02/17 11:21:46;;;;;;;0.97;0.90;;;;;;;9.88;100.00;101375.87;5212148;55;1138687;-78
2024/02/17 11:26:53;;;;;;;2.00;1.20;;;;;;;9.95;100.00;101393.97;5198161;55;1138918;-78
2024/02/17 11:32:02;;;;;;;1.00;1.00;;;;;;;10.01;100.00;101397.11;5040575;56;1138695;-76
2024/02/17 11:37:10;;;;;;;3.73;1.40;;;;;;;10.09;100.00;101404.55;5048931;57;1140696;-79
2024/02/17 11:42:20;;;;;;;5.93;3.77;;;;;;;10.17;100.00;101419.01;5063767;56;1141073;-78
2024/02/17 11:47:29;;;;;;;7.00;4.47;;;;;;;10.11;100.00;101455.06;5167909;55;1140673;-79
2024/02/17 11:52:34;;;;;;;6.43;3.60;;;;;;;9.86;100.00;101460.98;5153602;55;1140829;-78
2024/02/17 11:57:45;;;;;;;10.03;3.95;;;;;;;9.68;100.00;101472.62;5129682;55;1138685;-78
2024/02/17 12:02:52;;;;;;;4.72;2.74;;;;;;;9.52;100.00;101477.09;5172462;55;1140903;-77
2024/02/17 12:07:57;;;;;;;6.70;4.90;;;;;;;9.39;100.00;101498.08;5131746;55;1138885;-79
2024/02/17 12:13:05;;;;;;;7.85;5.33;;;;;;;9.36;100.00;101498.25;5105513;56;1139116;-79
2024/02/17 12:18:17;;;;;;;4.40;3.97;;;;;;;9.39;100.00;101507.80;5127008;55;1138675;-79
2024/02/17 12:23:19;;;;;;;5.63;3.60;;;;;;;9.42;100.00;101516.40;5193690;55;1138574;-79
2024/02/17 12:28:25;;;;;;;4.70;3.20;;;;;;;9.45;100.00;101520.66;5168567;55;1138862;-80
2024/02/17 12:33:31;;;;;;;2.30;2.10;;;;;;;9.43;100.00;101541.02;5160865;55;1139348;-79
2024/02/17 12:38:37;;;;;;;2.30;2.10;;;;;;;9.28;100.00;101554.61;5180017;55;1138554;-79
2024/02/17 12:43:44;;;;;;;1.73;1.63;;;;;;;9.11;100.00;101565.23;5185142;55;1138543;-79
2024/02/17 12:48:53;;;;;;;3.90;2.20;;;;;;;8.96;100.00;101576.63;5121225;55;1138760;-78
2024/02/17 12:53:59;;;;;;;4.27;2.10;;;;;;;8.78;100.00;101590.33;5127062;55;1248108;-80
2024/02/17 12:59:05;;;;;;;5.70;4.37;;;;;;;8.64;100.00;101604.25;5117917;55;1138780;-80
2024/02/17 13:04:10;;;;;;;4.83;2.58;;;;;;;8.60;100.00;101617.20;5147783;55;1138655;-80
2024/02/17 13:09:16;;;;;;;8.58;3.30;;;;;;;8.51;100.00;101624.74;5182279;55;1138683;-79
2024/02/17 13:14:21;;;;;;;2.23;1.87;;;;;;;8.38;100.00;101637.23;5193633;56;1138781;-79
2024/02/17 13:19:30;;;;;;;6.57;2.80;;;;;;;8.35;100.00;101637.84;5147497;55;1138676;-79
2024/02/17 13:24:34;;;;;;;3.93;2.43;;;;;;;8.31;100.00;101642.38;5134364;55;1138826;-79
2024/02/17 13:29:40;;;;;;;4.70;2.73;;;;;;;8.29;100.00;101648.66;5126480;55;1138858;-79
2024/02/17 13:34:45;;;;;;;2.83;2.07;;;;;;;8.33;100.00;101658.16;5145440;55;1139039;-80
2024/02/17 13:39:51;;;;;;;3.57;2.20;;;;;;;8.29;100.00;101669.27;5205297;55;1138721;-79
2024/02/17 13:44:57;;;;;;;10.97;3.93;;;;;;;8.22;100.00;101683.70;5162641;54;1138418;-78
2024/02/17 13:50:07;;;;;;;9.23;3.97;;;;;;;8.19;100.00;101692.22;5197378;55;1140962;-79
2024/02/17 13:55:14;;;;;;;12.93;4.62;;;;;;;8.12;100.00;101697.77;5211743;55;1138732;-79
2024/02/17 14:00:20;;;;;;;14.15;5.20;;;;;;;8.06;100.00;101697.23;5104680;56;1140935;-79
2024/02/17 14:05:26;;;;;;;10.73;4.17;;;;;;;7.99;100.00;101696.66;5132873;56;1140736;-78
2024/02/17 14:10:31;;;;;;;5.77;3.20;;;;;;;7.95;100.00;101706.09;5072356;56;1140509;-79
2024/02/17 14:15:37;;;;;;;7.20;3.97;;;;;;;7.82;100.00;101710.23;4974146;57;1138930;-78
2024/02/17 14:20:42;;;;;;;9.25;3.75;;;;;;;7.76;100.00;101732.47;4984455;57;1138822;-78
2024/02/17 14:25:48;;;;;;;10.03;4.33;;;;;;;7.65;100.00;101736.89;5139268;55;1138550;-79
2024/02/17 14:30:54;;;;;;;17.13;6.83;;;;;;;7.60;100.00;101743.31;5149270;56;1140513;-78
2024/02/17 14:35:59;;;;;;;27.30;14.67;;;;;;;7.57;100.00;101753.97;5062582;56;1140827;-78
2024/02/17 14:41:06;;;;;;;15.70;9.97;;;;;;;7.59;100.00;101769.25;5070554;56;1142920;-77
2024/02/17 14:46:11;;;;;;;9.13;5.07;;;;;;;7.55;100.00;101776.88;5097892;56;1183837;-78
2024/02/17 14:51:17;;;;;;;21.83;7.77;;;;;;;7.50;100.00;101789.38;5109786;56;1138709;-79
2024/02/17 14:56:23;;;;;;;7.30;3.77;;;;;;;7.46;100.00;101795.73;5127526;56;1140941;-79
2024/02/17 15:01:28;;;;;;;7.67;3.15;;;;;;;7.43;100.00;101801.12;5099590;56;1138700;-79
2024/02/17 15:06:34;;;;;;;416.83;188.80;;;;;;;7.38;100.00;101816.65;5105562;56;1138839;-78
2024/02/17 15:11:40;;;;;;;15.23;9.47;;;;;;;7.37;100.00;101833.81;5103886;56;1147149;-77
2024/02/17 15:16:46;;;;;;;318.77;167.60;;;;;;;7.33;100.00;101838.35;5134794;56;1141018;-77
2024/02/17 15:21:51;;;;;;;93.20;50.47;;;;;;;7.28;100.00;101840.80;5103156;56;1146869;-78
2024/02/17 15:26:57;;;;;;;29.73;15.17;;;;;;;7.23;100.00;101847.57;5125643;55;1142639;-76
2024/02/17 15:32:03;;;;;;;6.53;3.17;;;;;;;7.20;100.00;101861.31;5066005;56;1142778;-77
2024/02/17 15:37:13;;;;;;;5.03;2.73;;;;;;;7.12;100.00;101872.17;5039521;57;1138425;-78
2024/02/17 15:42:19;;;;;;;11.78;4.25;;;;;;;7.09;100.00;101884.13;5081929;56;1138767;-78
2024/02/17 15:47:24;;;;;;;8.73;4.63;;;;;;;7.12;100.00;101880.52;5048589;57;1140699;-78
2024/02/17 15:52:30;;;;;;;17.00;8.60;;;;;;;7.06;100.00;101884.25;5101121;55;1138590;-79
2024/02/17 15:57:35;;;;;;;15.03;5.57;;;;;;;7.04;100.00;101896.61;5035842;57;1140874;-79
2024/02/17 16:02:41;;;;;;;5.47;3.13;;;;;;;7.00;100.00;101894.58;5124201;55;1140813;-79
2024/02/17 16:07:47;;;;;;;10.83;5.10;;;;;;;6.98;100.00;101899.50;5136545;56;1138753;-80
2024/02/17 16:12:53;;;;;;;8.03;3.97;;;;;;;6.97;100.00;101917.52;5048077;57;1141089;-78
2024/02/17 16:17:58;;;;;;;36.67;17.10;;;;;;;6.97;100.00;101926.72;5136576;55;1138275;-78
2024/02/17 16:23:04;;;;;;;47.63;22.17;;;;;;;6.97;100.00;101931.53;5220040;55;1142870;-77
2024/02/17 16:28:10;;;;;;;6.93;2.73;;;;;;;6.95;100.00;101938.62;5220264;55;1142938;-77
2024/02/17 16:33:16;;;;;;;5.70;2.73;;;;;;;6.93;100.00;101950.97;5130149;55;1138973;-77
2024/02/17 16:38:21;;;;;;;3.17;2.20;;;;;;;6.94;100.00;101965.83;5153655;56;1138809;-77
2024/02/17 16:43:29;;;;;;;6.57;3.30;;;;;;;6.93;100.00;101968.06;5162263;55;1138626;-77
2024/02/17 16:48:34;;;;;;;15.75;5.90;;;;;;;6.86;100.00;101974.95;5147858;55;1138548;-77
2024/02/17 16:53:40;;;;;;;13.93;4.23;;;;;;;6.86;100.00;101986.33;5125756;56;1140892;-77
2024/02/17 16:58:45;;;;;;;10.30;5.03;;;;;;;6.80;100.00;102000.16;5106347;56;1140877;-77
2024/02/17 17:03:51;;;;;;;7.90;3.70;;;;;;;6.80;100.00;102000.16;5185400;55;1140715;-77
2024/02/17 17:08:57;;;;;;;12.37;4.07;;;;;;;6.77;100.00;102017.36;5210997;55;1138906;-77
2024/02/17 17:14:02;;;;;;;15.67;5.53;;;;;;;6.74;100.00;102022.27;5176683;55;1140592;-77
2024/02/17 17:19:08;;;;;;;12.67;6.20;;;;;;;6.76;100.00;102029.65;5110301;56;1140615;-76
2024/02/17 17:24:13;;;;;;;15.30;5.33;;;;;;;6.78;100.00;102042.28;5101295;56;1140896;-77
2024/02/17 17:29:19;;;;;;;13.87;4.77;;;;;;;6.80;100.00;102047.49;5140279;56;1140872;-77
2024/02/17 17:34:27;;;;;;;115.75;96.32;;;;;;;6.78;100.00;102062.01;5123262;56;1140973;-78
2024/02/17 17:39:33;;;;;;;113.23;62.40;;;;;;;6.78;100.00;102064.64;5122976;56;1144947;-77
2024/02/17 17:44:38;;;;;;;113.17;57.33;;;;;;;6.73;100.00;102065.71;5166747;55;1145137;-77
2024/02/17 17:49:44;;;;;;;9.43;6.30;;;;;;;6.68;100.00;102079.91;5203775;55;1144766;-79
2024/02/17 17:54:51;;;;;;;6.50;2.23;;;;;;;6.62;100.00;102084.06;5180975;55;1138981;-77
2024/02/17 17:59:56;;;;;;;6.47;2.40;;;;;;;6.56;100.00;102100.07;5223891;55;1138660;-77
2024/02/17 18:05:02;;;;;;;7.47;2.10;;;;;;;6.42;100.00;102106.24;5264358;55;1136649;-82
2024/02/17 18:10:12;;;;;;;2.17;1.37;;;;;;;6.33;100.00;102125.83;5301768;55;1138572;-80
2024/02/17 18:15:18;;;;;;;3.10;1.70;;;;;;;6.26;100.00;102134.81;5322587;55;1136303;-79
2024/02/17 18:20:25;;;;;;;8.43;7.30;;;;;;;6.22;100.00;102141.56;5343592;55;1136309;-80
2024/02/17 18:25:31;;;;;;;15.40;10.57;;;;;;;6.12;100.00;102159.37;5322948;55;1136942;-76
2024/02/17 18:30:36;;;;;;;8.27;3.80;;;;;;;6.04;100.00;102155.30;5322400;55;1140370;-74
2024/02/17 18:35:44;;;;;;;8.93;3.70;;;;;;;5.96;100.00;102180.02;5281355;55;1136567;-81
2024/02/17 18:40:49;;;;;;;6.87;2.63;;;;;;;5.98;100.00;102190.48;5309269;55;1136651;-80
2024/02/17 18:45:55;;;;;;;7.83;4.00;;;;;;;5.95;100.00;102199.34;5109983;56;1141576;-77
2024/02/17 18:51:01;;;;;;;14.58;7.25;;;;;;;5.83;100.00;102204.92;5151970;55;1136727;-79
2024/02/17 18:56:08;;;;;;;15.10;6.47;;;;;;;5.75;100.00;102225.31;5128766;56;1138764;-78
2024/02/17 19:01:13;;;;;;;8.97;3.93;;;;;;;5.69;100.00;102225.94;5069530;56;1138556;-77
2024/02/17 19:06:20;;;;;;;4.33;2.03;;;;;;;5.62;100.00;102243.66;5019976;55;1136701;-81
2024/02/17 19:11:26;;;;;;;9.17;3.60;;;;;;;5.58;100.00;102249.44;5045520;56;1136505;-76
2024/02/17 19:16:31;;;;;;;7.80;3.00;;;;;;;5.46;100.00;102245.86;5026159;55;1136363;-77
2024/02/17 19:21:37;;;;;;;9.00;4.40;;;;;;;5.40;100.00;102251.27;5025927;56;1136682;-77
2024/02/17 19:26:43;;;;;;;10.50;6.20;;;;;;;5.37;100.00;102257.05;5026258;56;1137080;-80
2024/02/17 19:31:48;;;;;;;7.37;3.80;;;;;;;5.35;100.00;102260.20;5045482;56;1138525;-79
2024/02/17 19:36:54;;;;;;;15.17;7.20;;;;;;;5.31;100.00;102267.29;5086221;56;1136601;-79
2024/02/17 19:42:00;;;;;;;17.90;7.40;;;;;;;5.30;100.00;102282.17;5074988;55;1138752;-80
2024/02/17 19:47:05;;;;;;;5.60;3.12;;;;;;;5.33;100.00;102279.91;5205927;55;1138804;-78
2024/02/17 19:52:11;;;;;;;16.43;3.60;;;;;;;5.38;100.00;102295.06;5201427;55;1136694;-80
2024/02/17 19:57:28;;;;;;;12.27;2.93;;;;;;;5.40;100.00;102297.64;5194860;55;1138979;-76
2024/02/17 20:02:32;;;;;;;12.03;3.90;;;;;;;5.39;100.00;102294.16;5132293;55;1138645;-76
2024/02/17 20:07:41;;;;;;;11.33;5.17;;;;;;;5.39;100.00;102308.59;5057287;56;1138590;-79
2024/02/17 20:12:46;;;;;;;20.23;7.50;;;;;;;5.37;100.00;102315.63;5095197;56;1138773;-78
2024/02/17 20:17:52;;;;;;;10.57;4.90;;;;;;;5.43;100.00;102319.87;5097529;57;1138733;-80
2024/02/17 20:22:57;;;;;;;7.93;3.43;;;;;;;5.44;100.00;102325.53;5086644;56;1138952;-81
2024/02/17 20:28:03;;;;;;;6.30;2.43;;;;;;;5.41;100.00;102331.71;5072208;56;1136788;-82
2024/02/17 20:33:10;;;;;;;9.03;3.50;;;;;;;5.38;100.00;102348.84;5146517;55;1136437;-82
2024/02/17 20:38:16;;;;;;;5.23;2.97;;;;;;;5.34;100.00;102348.54;5215509;55;1136675;-80
2024/02/17 20:43:21;;;;;;;7.47;3.73;;;;;;;5.33;100.00;102351.20;5126958;55;1136487;-79
2024/02/17 20:48:27;;;;;;;91.83;48.50;;;;;;;5.33;100.00;102365.63;5069769;56;1136372;-78
2024/02/17 20:53:34;;;;;;;28.23;18.30;;;;;;;5.33;100.00;102367.80;5048493;56;1140388;-75
2024/02/17 20:58:40;;;;;;;18.60;8.80;;;;;;;5.30;100.00;102370.05;5050181;56;1140613;-77
2024/02/17 21:03:45;;;;;;;12.93;5.57;;;;;;;5.29;100.00;102384.06;5148805;56;1138716;-80
2024/02/17 21:08:51;;;;;;;10.27;4.40;;;;;;;5.27;100.00;102376.69;5142071;55;1138531;-76
2024/02/17 21:13:57;;;;;;;17.30;6.27;;;;;;;5.28;100.00;102381.48;5134029;55;1138957;-77
2024/02/17 21:19:02;;;;;;;12.75;4.55;;;;;;;5.26;100.00;102381.97;5134008;55;1138810;-79
2024/02/17 21:24:08;;;;;;;12.80;4.57;;;;;;;5.24;100.00;102388.56;5154474;55;1138880;-79
2024/02/17 21:29:14;;;;;;;27.13;13.53;;;;;;;5.22;100.00;102398.67;5060351;55;1138983;-79
2024/02/17 21:34:20;;;;;;;36.80;13.70;;;;;;;5.24;100.00;102399.05;5066316;56;1141009;-83
2024/02/17 21:39:26;;;;;;;30.23;8.13;;;;;;;5.24;100.00;102398.19;5146535;55;1140996;-81
2024/02/17 21:44:33;;;;;;;11.30;4.17;;;;;;;5.30;100.00;102400.67;5121747;55;1138657;-82
2024/02/17 21:49:38;;;;;;;9.33;2.60;;;;;;;5.25;100.00;102402.09;5083779;55;1138581;-82
2024/02/17 21:54:44;;;;;;;11.40;4.20;;;;;;;5.23;100.00;102409.13;5047087;55;1136837;-82
2024/02/17 21:59:49;;;;;;;13.10;3.50;;;;;;;5.25;100.00;102421.77;5112836;56;1138795;-82
2024/02/17 22:04:56;;;;;;;34.60;9.53;;;;;;;5.35;100.00;102418.93;5196750;55;1140611;-82
2024/02/17 22:10:02;;;;;;;9.07;2.87;;;;;;;5.36;100.00;102418.86;5139232;55;1138506;-82
2024/02/17 22:15:09;;;;;;;3.70;2.15;;;;;;;5.31;100.00;102431.26;5165592;55;1137069;-82
2024/02/17 22:20:15;;;;;;;12.67;3.43;;;;;;;5.29;100.00;102431.73;5134564;55;1136746;-82
2024/02/17 22:25:21;;;;;;;19.50;4.67;;;;;;;5.38;100.00;102430.63;5181773;55;1138641;-81
2024/02/17 22:30:27;;;;;;;17.20;4.77;;;;;;;5.43;100.00;102441.88;5218186;55;1140654;-82
2024/02/17 22:35:32;;;;;;;37.20;10.10;;;;;;;5.44;100.00;102437.91;5197719;55;1138777;-82
2024/02/17 22:40:38;;;;;;;44.40;12.00;;;;;;;5.49;100.00;102441.73;5122217;55;1141025;-82
2024/02/17 22:45:44;;;;;;;30.75;10.70;;;;;;;5.52;100.00;102449.05;5131545;55;1140924;-82
2024/02/17 22:50:50;;;;;;;11.53;3.40;;;;;;;5.60;100.00;102462.00;5164109;55;1140699;-82
2024/02/17 22:55:56;;;;;;;21.77;6.83;;;;;;;5.58;100.00;102476.92;5091607;56;1138830;-81
2024/02/17 23:01:01;;;;;;;13.27;5.27;;;;;;;5.56;100.00;102488.77;5098603;56;1140851;-82